sensor_id;sensor_type;location;lat;lon;timestamp;P1;durP1;ratioP1;P2;durP2;ratioP2
20709;SDS011;10516;51.518;9.864;2022-08-16T00:01:16;6.60;;;4.80;;
20709;SDS011;10516;51.518;9.864;2022-08-16T00:03:42;6.93;;;5.72;;
20709;SDS011;10516;51.518;9.864;2022-08-16T00:06:09;6.72;;;5.68;;
20709;SDS011;10516;51.518;9.864;2022-08-16T00:08:34;5.95;;;5.32;;
20709;SDS011;10516;51.518;9.864;2022-08-16T00:11:00;8.18;;;5.97;;
20709;SDS011;10516;51.518;9.864;2022-08-16T00:13:25;6.78;;;5.68;;
20709;SDS011;10516;51.518;9.864;2022-08-16T00:15:51;11.77;;;7.05;;
20709;SDS011;10516;51.518;9.864;2022-08-16T00:18:16;9.00;;;6.20;;
20709;SDS011;10516;51.518;9.864;2022-08-16T00:20:44;8.70;;;6.10;;
20709;SDS011;10516;51.518;9.864;2022-08-16T00:23:11;7.15;;;5.85;;
20709;SDS011;10516;51.518;9.864;2022-08-16T00:25:38;5.97;;;5.40;;
20709;SDS011;10516;51.518;9.864;2022-08-16T00:28:03;9.35;;;6.07;;
20709;SDS011;10516;51.518;9.864;2022-08-16T00:30:29;8.52;;;5.68;;
20709;SDS011;10516;51.518;9.864;2022-08-16T00:32:56;7.43;;;5.47;;
20709;SDS011;10516;51.518;9.864;2022-08-16T00:35:29;8.10;;;5.22;;
20709;SDS011;10516;51.518;9.864;2022-08-16T00:38:00;9.70;;;6.43;;
20709;SDS011;10516;51.518;9.864;2022-08-16T00:40:41;8.70;;;5.78;;
20709;SDS011;10516;51.518;9.864;2022-08-16T00:43:16;8.13;;;5.35;;
20709;SDS011;10516;51.518;9.864;2022-08-16T00:48:44;6.07;;;5.30;;
20709;SDS011;10516;51.518;9.864;2022-08-16T00:51:11;6.43;;;5.80;;
20709;SDS011;10516;51.518;9.864;2022-08-16T00:53:38;5.85;;;5.25;;
20709;SDS011;10516;51.518;9.864;2022-08-16T00:56:05;7.40;;;5.57;;
20709;SDS011;10516;51.518;9.864;2022-08-16T00:58:34;6.47;;;5.82;;
20709;SDS011;10516;51.518;9.864;2022-08-16T01:01:04;8.82;;;5.80;;
20709;SDS011;10516;51.518;9.864;2022-08-16T01:03:31;7.43;;;5.65;;
20709;SDS011;10516;51.518;9.864;2022-08-16T01:05:57;5.95;;;5.45;;
20709;SDS011;10516;51.518;9.864;2022-08-16T01:08:22;7.00;;;5.88;;
20709;SDS011;10516;51.518;9.864;2022-08-16T01:10:50;6.50;;;5.68;;
20709;SDS011;10516;51.518;9.864;2022-08-16T01:13:24;7.15;;;5.80;;
20709;SDS011;10516;51.518;9.864;2022-08-16T01:15:56;5.65;;;5.15;;
20709;SDS011;10516;51.518;9.864;2022-08-16T01:18:32;7.13;;;6.13;;
20709;SDS011;10516;51.518;9.864;2022-08-16T01:21:13;5.90;;;5.40;;
20709;SDS011;10516;51.518;9.864;2022-08-16T01:26:24;5.80;;;5.20;;
20709;SDS011;10516;51.518;9.864;2022-08-16T01:29:00;9.05;;;6.63;;
20709;SDS011;10516;51.518;9.864;2022-08-16T01:31:30;6.35;;;5.75;;
20709;SDS011;10516;51.518;9.864;2022-08-16T01:34:03;6.75;;;5.72;;
20709;SDS011;10516;51.518;9.864;2022-08-16T01:36:30;6.00;;;5.40;;
20709;SDS011;10516;51.518;9.864;2022-08-16T01:38:56;5.60;;;5.10;;
20709;SDS011;10516;51.518;9.864;2022-08-16T01:41:23;7.97;;;7.05;;
20709;SDS011;10516;51.518;9.864;2022-08-16T01:43:51;6.68;;;6.07;;
20709;SDS011;10516;51.518;9.864;2022-08-16T01:46:23;6.00;;;5.50;;
20709;SDS011;10516;51.518;9.864;2022-08-16T01:49:02;7.20;;;6.05;;
20709;SDS011;10516;51.518;9.864;2022-08-16T01:51:31;7.35;;;6.20;;
20709;SDS011;10516;51.518;9.864;2022-08-16T01:53:57;7.03;;;6.32;;
20709;SDS011;10516;51.518;9.864;2022-08-16T01:56:23;6.95;;;6.25;;
20709;SDS011;10516;51.518;9.864;2022-08-16T01:58:54;6.40;;;5.80;;
20709;SDS011;10516;51.518;9.864;2022-08-16T02:01:21;8.93;;;6.07;;
20709;SDS011;10516;51.518;9.864;2022-08-16T02:03:48;6.20;;;5.60;;
20709;SDS011;10516;51.518;9.864;2022-08-16T02:06:14;7.88;;;5.97;;
20709;SDS011;10516;51.518;9.864;2022-08-16T02:08:39;6.78;;;6.10;;
20709;SDS011;10516;51.518;9.864;2022-08-16T02:11:06;7.93;;;7.13;;
20709;SDS011;10516;51.518;9.864;2022-08-16T02:13:33;7.40;;;6.70;;
20709;SDS011;10516;51.518;9.864;2022-08-16T02:15:59;8.25;;;7.43;;
20709;SDS011;10516;51.518;9.864;2022-08-16T02:18:25;6.45;;;5.85;;
20709;SDS011;10516;51.518;9.864;2022-08-16T02:20:52;6.50;;;6.00;;
20709;SDS011;10516;51.518;9.864;2022-08-16T02:23:18;7.50;;;6.03;;
20709;SDS011;10516;51.518;9.864;2022-08-16T02:25:45;6.47;;;5.88;;
20709;SDS011;10516;51.518;9.864;2022-08-16T02:28:11;8.35;;;6.95;;
20709;SDS011;10516;51.518;9.864;2022-08-16T02:30:37;9.93;;;6.88;;
20709;SDS011;10516;51.518;9.864;2022-08-16T02:33:03;7.78;;;6.63;;
20709;SDS011;10516;51.518;9.864;2022-08-16T02:35:29;7.10;;;6.40;;
20709;SDS011;10516;51.518;9.864;2022-08-16T02:37:56;7.38;;;6.60;;
20709;SDS011;10516;51.518;9.864;2022-08-16T02:40:22;9.38;;;6.65;;
20709;SDS011;10516;51.518;9.864;2022-08-16T02:42:49;7.97;;;6.68;;
20709;SDS011;10516;51.518;9.864;2022-08-16T02:45:17;6.55;;;5.95;;
20709;SDS011;10516;51.518;9.864;2022-08-16T02:47:45;7.38;;;6.43;;
20709;SDS011;10516;51.518;9.864;2022-08-16T02:50:10;6.57;;;5.82;;
20709;SDS011;10516;51.518;9.864;2022-08-16T02:52:36;7.43;;;6.68;;
20709;SDS011;10516;51.518;9.864;2022-08-16T02:55:02;9.45;;;7.30;;
20709;SDS011;10516;51.518;9.864;2022-08-16T02:57:30;8.00;;;7.20;;
20709;SDS011;10516;51.518;9.864;2022-08-16T02:59:55;8.27;;;5.88;;
20709;SDS011;10516;51.518;9.864;2022-08-16T03:02:21;6.60;;;6.00;;
20709;SDS011;10516;51.518;9.864;2022-08-16T03:04:46;7.22;;;6.60;;
20709;SDS011;10516;51.518;9.864;2022-08-16T03:07:12;7.35;;;6.75;;
20709;SDS011;10516;51.518;9.864;2022-08-16T03:09:38;6.60;;;6.00;;
20709;SDS011;10516;51.518;9.864;2022-08-16T03:12:08;8.60;;;5.80;;
20709;SDS011;10516;51.518;9.864;2022-08-16T03:14:33;6.95;;;5.88;;
20709;SDS011;10516;51.518;9.864;2022-08-16T03:16:59;7.22;;;5.75;;
20709;SDS011;10516;51.518;9.864;2022-08-16T03:19:25;6.13;;;5.63;;
20709;SDS011;10516;51.518;9.864;2022-08-16T03:21:57;6.38;;;5.78;;
20709;SDS011;10516;51.518;9.864;2022-08-16T03:24:22;8.88;;;5.70;;
20709;SDS011;10516;51.518;9.864;2022-08-16T03:26:48;6.55;;;6.03;;
20709;SDS011;10516;51.518;9.864;2022-08-16T03:29:14;7.30;;;5.93;;
20709;SDS011;10516;51.518;9.864;2022-08-16T03:31:40;6.53;;;5.88;;
20709;SDS011;10516;51.518;9.864;2022-08-16T03:34:06;9.35;;;5.95;;
20709;SDS011;10516;51.518;9.864;2022-08-16T03:36:32;7.57;;;6.78;;
20709;SDS011;10516;51.518;9.864;2022-08-16T03:38:57;7.40;;;6.22;;
20709;SDS011;10516;51.518;9.864;2022-08-16T03:41:23;6.63;;;6.03;;
20709;SDS011;10516;51.518;9.864;2022-08-16T03:43:50;7.00;;;5.60;;
20709;SDS011;10516;51.518;9.864;2022-08-16T03:46:18;11.05;;;6.65;;
20709;SDS011;10516;51.518;9.864;2022-08-16T03:48:46;7.88;;;5.35;;
20709;SDS011;10516;51.518;9.864;2022-08-16T03:51:13;6.65;;;5.68;;
20709;SDS011;10516;51.518;9.864;2022-08-16T03:53:40;6.55;;;5.95;;
20709;SDS011;10516;51.518;9.864;2022-08-16T03:56:06;10.38;;;6.30;;
20709;SDS011;10516;51.518;9.864;2022-08-16T03:58:33;7.10;;;6.40;;
20709;SDS011;10516;51.518;9.864;2022-08-16T04:00:59;7.00;;;5.97;;
20709;SDS011;10516;51.518;9.864;2022-08-16T04:03:24;7.32;;;6.03;;
20709;SDS011;10516;51.518;9.864;2022-08-16T04:05:50;7.32;;;6.28;;
20709;SDS011;10516;51.518;9.864;2022-08-16T04:08:16;8.90;;;6.72;;
20709;SDS011;10516;51.518;9.864;2022-08-16T04:10:45;7.70;;;6.70;;
20709;SDS011;10516;51.518;9.864;2022-08-16T04:13:11;6.15;;;5.65;;
20709;SDS011;10516;51.518;9.864;2022-08-16T04:15:36;8.45;;;6.47;;
20709;SDS011;10516;51.518;9.864;2022-08-16T04:18:02;7.30;;;6.55;;
20709;SDS011;10516;51.518;9.864;2022-08-16T04:20:28;7.53;;;6.93;;
20709;SDS011;10516;51.518;9.864;2022-08-16T04:22:55;8.98;;;8.10;;
20709;SDS011;10516;51.518;9.864;2022-08-16T04:25:21;8.40;;;7.50;;
20709;SDS011;10516;51.518;9.864;2022-08-16T04:27:47;13.73;;;7.88;;
20709;SDS011;10516;51.518;9.864;2022-08-16T04:30:13;8.48;;;7.18;;
20709;SDS011;10516;51.518;9.864;2022-08-16T04:32:40;6.70;;;6.00;;
20709;SDS011;10516;51.518;9.864;2022-08-16T04:35:07;7.35;;;6.63;;
20709;SDS011;10516;51.518;9.864;2022-08-16T04:37:36;10.52;;;7.50;;
20709;SDS011;10516;51.518;9.864;2022-08-16T04:40:03;9.05;;;7.65;;
20709;SDS011;10516;51.518;9.864;2022-08-16T04:42:29;17.85;;;10.35;;
20709;SDS011;10516;51.518;9.864;2022-08-16T04:44:54;12.07;;;7.68;;
20709;SDS011;10516;51.518;9.864;2022-08-16T04:47:26;9.73;;;8.73;;
20709;SDS011;10516;51.518;9.864;2022-08-16T04:49:54;11.25;;;9.27;;
20709;SDS011;10516;51.518;9.864;2022-08-16T04:52:19;10.10;;;9.10;;
20709;SDS011;10516;51.518;9.864;2022-08-16T04:54:45;11.98;;;9.05;;
20709;SDS011;10516;51.518;9.864;2022-08-16T04:57:12;7.35;;;6.65;;
20709;SDS011;10516;51.518;9.864;2022-08-16T04:59:37;9.93;;;7.78;;
20709;SDS011;10516;51.518;9.864;2022-08-16T05:02:03;9.73;;;8.45;;
20709;SDS011;10516;51.518;9.864;2022-08-16T05:04:28;8.55;;;6.47;;
20709;SDS011;10516;51.518;9.864;2022-08-16T05:06:58;9.38;;;8.57;;
20709;SDS011;10516;51.518;9.864;2022-08-16T05:09:25;7.70;;;6.85;;
20709;SDS011;10516;51.518;9.864;2022-08-16T05:11:51;7.63;;;6.93;;
20709;SDS011;10516;51.518;9.864;2022-08-16T05:14:17;9.27;;;8.13;;
20709;SDS011;10516;51.518;9.864;2022-08-16T05:16:42;10.05;;;8.52;;
20709;SDS011;10516;51.518;9.864;2022-08-16T05:19:08;9.85;;;6.82;;
20709;SDS011;10516;51.518;9.864;2022-08-16T05:21:34;8.35;;;6.65;;
20709;SDS011;10516;51.518;9.864;2022-08-16T05:24:00;7.75;;;6.25;;
20709;SDS011;10516;51.518;9.864;2022-08-16T05:26:27;7.35;;;5.88;;
20709;SDS011;10516;51.518;9.864;2022-08-16T05:28:57;11.82;;;8.70;;
20709;SDS011;10516;51.518;9.864;2022-08-16T05:31:24;8.35;;;7.50;;
20709;SDS011;10516;51.518;9.864;2022-08-16T05:33:51;7.13;;;6.40;;
20709;SDS011;10516;51.518;9.864;2022-08-16T05:36:16;9.43;;;7.13;;
20709;SDS011;10516;51.518;9.864;2022-08-16T05:38:42;7.43;;;6.72;;
20709;SDS011;10516;51.518;9.864;2022-08-16T05:41:07;9.70;;;8.32;;
20709;SDS011;10516;51.518;9.864;2022-08-16T05:43:32;8.68;;;7.82;;
20709;SDS011;10516;51.518;9.864;2022-08-16T05:45:58;9.32;;;7.45;;
20709;SDS011;10516;51.518;9.864;2022-08-16T05:48:24;8.50;;;7.38;;
20709;SDS011;10516;51.518;9.864;2022-08-16T05:50:50;9.13;;;6.38;;
20709;SDS011;10516;51.518;9.864;2022-08-16T05:53:15;8.20;;;6.65;;
20709;SDS011;10516;51.518;9.864;2022-08-16T05:55:41;9.32;;;6.80;;
20709;SDS011;10516;51.518;9.864;2022-08-16T05:58:07;10.85;;;6.82;;
20709;SDS011;10516;51.518;9.864;2022-08-16T06:00:32;9.50;;;7.28;;
20709;SDS011;10516;51.518;9.864;2022-08-16T06:02:57;9.38;;;6.60;;
20709;SDS011;10516;51.518;9.864;2022-08-16T06:05:23;10.15;;;6.90;;
20709;SDS011;10516;51.518;9.864;2022-08-16T06:07:49;7.95;;;7.15;;
20709;SDS011;10516;51.518;9.864;2022-08-16T06:10:15;10.55;;;7.40;;
20709;SDS011;10516;51.518;9.864;2022-08-16T06:12:42;7.07;;;6.38;;
20709;SDS011;10516;51.518;9.864;2022-08-16T06:15:12;10.40;;;6.70;;
20709;SDS011;10516;51.518;9.864;2022-08-16T06:17:41;11.57;;;6.95;;
20709;SDS011;10516;51.518;9.864;2022-08-16T06:20:07;8.25;;;6.68;;
20709;SDS011;10516;51.518;9.864;2022-08-16T06:22:37;7.82;;;6.55;;
20709;SDS011;10516;51.518;9.864;2022-08-16T06:25:03;6.72;;;6.22;;
20709;SDS011;10516;51.518;9.864;2022-08-16T06:27:29;8.77;;;6.20;;
20709;SDS011;10516;51.518;9.864;2022-08-16T06:29:55;7.88;;;5.93;;
20709;SDS011;10516;51.518;9.864;2022-08-16T06:32:20;9.00;;;6.20;;
20709;SDS011;10516;51.518;9.864;2022-08-16T06:34:46;7.05;;;6.35;;
20709;SDS011;10516;51.518;9.864;2022-08-16T06:37:11;8.13;;;6.53;;
20709;SDS011;10516;51.518;9.864;2022-08-16T06:39:37;9.95;;;6.55;;
20709;SDS011;10516;51.518;9.864;2022-08-16T06:42:02;8.15;;;6.38;;
20709;SDS011;10516;51.518;9.864;2022-08-16T06:44:28;8.20;;;6.43;;
20709;SDS011;10516;51.518;9.864;2022-08-16T06:46:53;9.85;;;5.65;;
20709;SDS011;10516;51.518;9.864;2022-08-16T06:49:19;7.00;;;5.40;;
20709;SDS011;10516;51.518;9.864;2022-08-16T06:51:44;6.38;;;5.78;;
20709;SDS011;10516;51.518;9.864;2022-08-16T06:54:10;6.70;;;6.00;;
20709;SDS011;10516;51.518;9.864;2022-08-16T06:56:35;10.85;;;6.50;;
20709;SDS011;10516;51.518;9.864;2022-08-16T06:59:01;9.85;;;5.40;;
20709;SDS011;10516;51.518;9.864;2022-08-16T07:01:28;6.80;;;5.90;;
20709;SDS011;10516;51.518;9.864;2022-08-16T07:03:53;8.18;;;6.28;;
20709;SDS011;10516;51.518;9.864;2022-08-16T07:06:19;7.20;;;5.78;;
20709;SDS011;10516;51.518;9.864;2022-08-16T07:08:46;6.45;;;5.53;;
20709;SDS011;10516;51.518;9.864;2022-08-16T07:11:13;5.80;;;5.18;;
20709;SDS011;10516;51.518;9.864;2022-08-16T07:13:39;7.55;;;5.40;;
20709;SDS011;10516;51.518;9.864;2022-08-16T07:16:05;8.05;;;5.53;;
20709;SDS011;10516;51.518;9.864;2022-08-16T07:18:31;8.43;;;6.20;;
20709;SDS011;10516;51.518;9.864;2022-08-16T07:20:57;6.88;;;5.97;;
20709;SDS011;10516;51.518;9.864;2022-08-16T07:23:23;5.70;;;5.10;;
20709;SDS011;10516;51.518;9.864;2022-08-16T07:25:49;6.07;;;5.50;;
20709;SDS011;10516;51.518;9.864;2022-08-16T07:28:16;7.60;;;5.43;;
20709;SDS011;10516;51.518;9.864;2022-08-16T07:30:42;6.90;;;5.45;;
20709;SDS011;10516;51.518;9.864;2022-08-16T07:33:09;6.63;;;5.43;;
20709;SDS011;10516;51.518;9.864;2022-08-16T07:35:35;5.97;;;5.38;;
20709;SDS011;10516;51.518;9.864;2022-08-16T07:38:02;6.55;;;5.95;;
20709;SDS011;10516;51.518;9.864;2022-08-16T07:40:28;5.50;;;5.00;;
20709;SDS011;10516;51.518;9.864;2022-08-16T07:42:54;9.02;;;4.70;;
20709;SDS011;10516;51.518;9.864;2022-08-16T07:45:19;6.25;;;4.85;;
20709;SDS011;10516;51.518;9.864;2022-08-16T07:47:45;9.30;;;5.90;;
20709;SDS011;10516;51.518;9.864;2022-08-16T07:50:11;6.90;;;4.70;;
20709;SDS011;10516;51.518;9.864;2022-08-16T07:52:38;5.65;;;4.65;;
20709;SDS011;10516;51.518;9.864;2022-08-16T07:55:05;9.32;;;5.68;;
20709;SDS011;10516;51.518;9.864;2022-08-16T07:57:31;6.10;;;5.40;;
20709;SDS011;10516;51.518;9.864;2022-08-16T07:59:57;6.50;;;5.18;;
20709;SDS011;10516;51.518;9.864;2022-08-16T08:02:24;9.73;;;5.28;;
20709;SDS011;10516;51.518;9.864;2022-08-16T08:04:51;6.63;;;4.70;;
20709;SDS011;10516;51.518;9.864;2022-08-16T08:07:16;9.02;;;5.22;;
20709;SDS011;10516;51.518;9.864;2022-08-16T08:09:42;5.55;;;4.90;;
20709;SDS011;10516;51.518;9.864;2022-08-16T08:12:08;5.85;;;5.35;;
20709;SDS011;10516;51.518;9.864;2022-08-16T08:14:33;7.18;;;5.50;;
20709;SDS011;10516;51.518;9.864;2022-08-16T08:16:58;8.77;;;4.65;;
20709;SDS011;10516;51.518;9.864;2022-08-16T08:19:25;7.10;;;4.80;;
20709;SDS011;10516;51.518;9.864;2022-08-16T08:21:51;6.28;;;5.05;;
20709;SDS011;10516;51.518;9.864;2022-08-16T08:24:18;5.63;;;5.10;;
20709;SDS011;10516;51.518;9.864;2022-08-16T08:26:46;6.07;;;4.80;;
20709;SDS011;10516;51.518;9.864;2022-08-16T08:29:11;6.03;;;5.00;;
20709;SDS011;10516;51.518;9.864;2022-08-16T08:31:36;8.25;;;4.95;;
20709;SDS011;10516;51.518;9.864;2022-08-16T08:34:03;5.07;;;4.60;;
20709;SDS011;10516;51.518;9.864;2022-08-16T08:36:29;6.22;;;4.68;;
20709;SDS011;10516;51.518;9.864;2022-08-16T08:38:56;5.47;;;4.97;;
20709;SDS011;10516;51.518;9.864;2022-08-16T08:41:22;6.93;;;4.70;;
20709;SDS011;10516;51.518;9.864;2022-08-16T08:43:52;5.47;;;4.97;;
20709;SDS011;10516;51.518;9.864;2022-08-16T08:46:18;6.45;;;4.80;;
20709;SDS011;10516;51.518;9.864;2022-08-16T08:48:45;4.75;;;4.25;;
20709;SDS011;10516;51.518;9.864;2022-08-16T08:51:10;4.90;;;4.40;;
20709;SDS011;10516;51.518;9.864;2022-08-16T08:53:36;7.57;;;4.65;;
20709;SDS011;10516;51.518;9.864;2022-08-16T08:56:02;7.95;;;4.20;;
20709;SDS011;10516;51.518;9.864;2022-08-16T08:58:31;4.75;;;3.88;;
20709;SDS011;10516;51.518;9.864;2022-08-16T09:00:57;6.00;;;4.82;;
20709;SDS011;10516;51.518;9.864;2022-08-16T09:03:23;4.38;;;3.97;;
20709;SDS011;10516;51.518;9.864;2022-08-16T09:05:48;9.85;;;4.50;;
20709;SDS011;10516;51.518;9.864;2022-08-16T09:08:16;7.50;;;4.45;;
20709;SDS011;10516;51.518;9.864;2022-08-16T09:10:42;4.70;;;4.30;;
20709;SDS011;10516;51.518;9.864;2022-08-16T09:13:08;6.78;;;3.78;;
20709;SDS011;10516;51.518;9.864;2022-08-16T09:15:35;5.18;;;4.25;;
20709;SDS011;10516;51.518;9.864;2022-08-16T09:18:01;4.80;;;4.00;;
20709;SDS011;10516;51.518;9.864;2022-08-16T09:20:27;7.18;;;4.50;;
20709;SDS011;10516;51.518;9.864;2022-08-16T09:22:54;6.25;;;4.63;;
20709;SDS011;10516;51.518;9.864;2022-08-16T09:25:20;5.45;;;3.88;;
20709;SDS011;10516;51.518;9.864;2022-08-16T09:27:46;3.90;;;3.60;;
20709;SDS011;10516;51.518;9.864;2022-08-16T09:30:12;6.18;;;4.05;;
20709;SDS011;10516;51.518;9.864;2022-08-16T09:32:38;5.30;;;4.13;;
20709;SDS011;10516;51.518;9.864;2022-08-16T09:35:03;4.38;;;3.85;;
20709;SDS011;10516;51.518;9.864;2022-08-16T09:37:30;5.15;;;3.40;;
20709;SDS011;10516;51.518;9.864;2022-08-16T09:39:57;5.50;;;3.83;;
20709;SDS011;10516;51.518;9.864;2022-08-16T09:42:23;5.35;;;4.45;;
20709;SDS011;10516;51.518;9.864;2022-08-16T09:44:48;3.90;;;3.50;;
20709;SDS011;10516;51.518;9.864;2022-08-16T09:47:14;4.45;;;3.58;;
20709;SDS011;10516;51.518;9.864;2022-08-16T09:49:43;4.78;;;3.85;;
20709;SDS011;10516;51.518;9.864;2022-08-16T09:52:09;6.05;;;3.47;;
20709;SDS011;10516;51.518;9.864;2022-08-16T09:54:34;4.03;;;3.72;;
20709;SDS011;10516;51.518;9.864;2022-08-16T09:57:00;5.97;;;3.72;;
20709;SDS011;10516;51.518;9.864;2022-08-16T09:59:26;4.28;;;3.83;;
20709;SDS011;10516;51.518;9.864;2022-08-16T10:01:52;3.50;;;3.20;;
20709;SDS011;10516;51.518;9.864;2022-08-16T10:04:18;4.65;;;3.65;;
20709;SDS011;10516;51.518;9.864;2022-08-16T10:06:44;4.88;;;3.47;;
20709;SDS011;10516;51.518;9.864;2022-08-16T10:09:10;6.45;;;3.55;;
20709;SDS011;10516;51.518;9.864;2022-08-16T10:11:38;3.90;;;3.30;;
20709;SDS011;10516;51.518;9.864;2022-08-16T10:14:24;4.40;;;2.97;;
20709;SDS011;10516;51.518;9.864;2022-08-16T10:16:54;5.50;;;3.50;;
20709;SDS011;10516;51.518;9.864;2022-08-16T10:19:21;5.95;;;3.53;;
20709;SDS011;10516;51.518;9.864;2022-08-16T10:21:47;3.42;;;3.00;;
20709;SDS011;10516;51.518;9.864;2022-08-16T10:24:14;5.20;;;3.40;;
20709;SDS011;10516;51.518;9.864;2022-08-16T10:26:40;3.28;;;2.97;;
20709;SDS011;10516;51.518;9.864;2022-08-16T10:29:06;4.13;;;3.72;;
20709;SDS011;10516;51.518;9.864;2022-08-16T10:31:32;5.65;;;3.35;;
20709;SDS011;10516;51.518;9.864;2022-08-16T10:33:58;3.45;;;2.97;;
20709;SDS011;10516;51.518;9.864;2022-08-16T10:36:25;3.38;;;3.08;;
20709;SDS011;10516;51.518;9.864;2022-08-16T10:38:51;4.32;;;3.83;;
20709;SDS011;10516;51.518;9.864;2022-08-16T10:41:17;9.35;;;3.50;;
20709;SDS011;10516;51.518;9.864;2022-08-16T10:43:42;5.57;;;3.70;;
20709;SDS011;10516;51.518;9.864;2022-08-16T10:46:09;3.67;;;3.38;;
20709;SDS011;10516;51.518;9.864;2022-08-16T10:48:36;3.42;;;3.22;;
20709;SDS011;10516;51.518;9.864;2022-08-16T10:51:03;4.18;;;2.85;;
20709;SDS011;10516;51.518;9.864;2022-08-16T10:53:29;4.78;;;3.15;;
20709;SDS011;10516;51.518;9.864;2022-08-16T10:55:56;4.32;;;3.10;;
20709;SDS011;10516;51.518;9.864;2022-08-16T10:58:23;7.97;;;3.40;;
20709;SDS011;10516;51.518;9.864;2022-08-16T11:00:49;3.45;;;3.15;;
20709;SDS011;10516;51.518;9.864;2022-08-16T11:03:15;6.43;;;3.95;;
20709;SDS011;10516;51.518;9.864;2022-08-16T11:05:40;3.63;;;3.33;;
20709;SDS011;10516;51.518;9.864;2022-08-16T11:08:08;4.00;;;3.70;;
20709;SDS011;10516;51.518;9.864;2022-08-16T11:10:37;4.70;;;3.20;;
20709;SDS011;10516;51.518;9.864;2022-08-16T11:13:05;3.75;;;3.45;;
20709;SDS011;10516;51.518;9.864;2022-08-16T11:15:31;4.93;;;3.63;;
20709;SDS011;10516;51.518;9.864;2022-08-16T11:17:58;3.90;;;3.50;;
20709;SDS011;10516;51.518;9.864;2022-08-16T11:20:24;4.20;;;3.80;;
20709;SDS011;10516;51.518;9.864;2022-08-16T11:22:52;4.20;;;3.72;;
20709;SDS011;10516;51.518;9.864;2022-08-16T11:25:19;3.65;;;3.08;;
20709;SDS011;10516;51.518;9.864;2022-08-16T11:27:47;4.00;;;3.60;;
20709;SDS011;10516;51.518;9.864;2022-08-16T11:30:13;3.20;;;2.90;;
20709;SDS011;10516;51.518;9.864;2022-08-16T11:32:40;4.90;;;3.70;;
20709;SDS011;10516;51.518;9.864;2022-08-16T11:35:11;3.55;;;3.25;;
20709;SDS011;10516;51.518;9.864;2022-08-16T11:37:51;3.92;;;3.15;;
20709;SDS011;10516;51.518;9.864;2022-08-16T11:40:20;7.35;;;2.90;;
20709;SDS011;10516;51.518;9.864;2022-08-16T11:42:47;3.42;;;3.13;;
20709;SDS011;10516;51.518;9.864;2022-08-16T11:45:12;4.78;;;3.45;;
20709;SDS011;10516;51.518;9.864;2022-08-16T11:47:38;6.38;;;2.92;;
20709;SDS011;10516;51.518;9.864;2022-08-16T11:50:05;3.40;;;3.10;;
20709;SDS011;10516;51.518;9.864;2022-08-16T11:52:35;4.28;;;3.70;;
20709;SDS011;10516;51.518;9.864;2022-08-16T11:55:02;3.17;;;2.92;;
20709;SDS011;10516;51.518;9.864;2022-08-16T11:57:29;3.25;;;3.00;;
20709;SDS011;10516;51.518;9.864;2022-08-16T11:59:54;3.55;;;2.85;;
20709;SDS011;10516;51.518;9.864;2022-08-16T12:02:19;4.15;;;3.33;;
20709;SDS011;10516;51.518;9.864;2022-08-16T12:04:45;3.85;;;3.25;;
20709;SDS011;10516;51.518;9.864;2022-08-16T12:07:11;5.35;;;3.22;;
20709;SDS011;10516;51.518;9.864;2022-08-16T12:09:37;6.80;;;3.30;;
20709;SDS011;10516;51.518;9.864;2022-08-16T12:12:03;3.28;;;2.97;;
20709;SDS011;10516;51.518;9.864;2022-08-16T12:14:30;4.50;;;3.58;;
20709;SDS011;10516;51.518;9.864;2022-08-16T12:16:56;4.68;;;3.50;;
20709;SDS011;10516;51.518;9.864;2022-08-16T12:19:24;3.72;;;3.40;;
20709;SDS011;10516;51.518;9.864;2022-08-16T12:21:49;5.25;;;3.40;;
20709;SDS011;10516;51.518;9.864;2022-08-16T12:24:15;3.00;;;2.67;;
20709;SDS011;10516;51.518;9.864;2022-08-16T12:26:40;4.20;;;3.05;;
20709;SDS011;10516;51.518;9.864;2022-08-16T12:29:06;3.22;;;2.60;;
20709;SDS011;10516;51.518;9.864;2022-08-16T12:31:32;7.28;;;3.78;;
20709;SDS011;10516;51.518;9.864;2022-08-16T12:33:57;4.45;;;2.80;;
20709;SDS011;10516;51.518;9.864;2022-08-16T12:36:23;3.55;;;3.25;;
20709;SDS011;10516;51.518;9.864;2022-08-16T12:38:50;3.30;;;2.90;;
20709;SDS011;10516;51.518;9.864;2022-08-16T12:41:16;4.30;;;3.53;;
20709;SDS011;10516;51.518;9.864;2022-08-16T12:43:42;4.80;;;3.25;;
20709;SDS011;10516;51.518;9.864;2022-08-16T12:46:08;7.65;;;3.40;;
20709;SDS011;10516;51.518;9.864;2022-08-16T12:48:35;5.78;;;3.30;;
20709;SDS011;10516;51.518;9.864;2022-08-16T12:51:20;4.63;;;3.22;;
20709;SDS011;10516;51.518;9.864;2022-08-16T12:53:48;4.25;;;2.90;;
20709;SDS011;10516;51.518;9.864;2022-08-16T12:56:19;3.10;;;2.83;;
20709;SDS011;10516;51.518;9.864;2022-08-16T12:58:46;4.70;;;3.90;;
20709;SDS011;10516;51.518;9.864;2022-08-16T13:01:15;6.47;;;3.33;;
20709;SDS011;10516;51.518;9.864;2022-08-16T13:03:45;5.78;;;3.95;;
20709;SDS011;10516;51.518;9.864;2022-08-16T13:06:11;3.55;;;3.25;;
20709;SDS011;10516;51.518;9.864;2022-08-16T13:08:38;8.43;;;3.88;;
20709;SDS011;10516;51.518;9.864;2022-08-16T13:11:04;5.00;;;3.33;;
20709;SDS011;10516;51.518;9.864;2022-08-16T13:13:31;6.32;;;3.03;;
20709;SDS011;10516;51.518;9.864;2022-08-16T13:15:59;4.93;;;3.05;;
20709;SDS011;10516;51.518;9.864;2022-08-16T13:18:26;3.85;;;3.33;;
20709;SDS011;10516;51.518;9.864;2022-08-16T13:20:53;3.80;;;3.00;;
20709;SDS011;10516;51.518;9.864;2022-08-16T13:23:21;3.25;;;2.97;;
20709;SDS011;10516;51.518;9.864;2022-08-16T13:25:47;7.25;;;2.97;;
20709;SDS011;10516;51.518;9.864;2022-08-16T13:28:14;4.68;;;3.00;;
20709;SDS011;10516;51.518;9.864;2022-08-16T13:30:45;3.55;;;3.25;;
20709;SDS011;10516;51.518;9.864;2022-08-16T13:33:15;4.07;;;2.75;;
20709;SDS011;10516;51.518;9.864;2022-08-16T13:35:44;3.47;;;3.10;;
20709;SDS011;10516;51.518;9.864;2022-08-16T13:38:12;5.72;;;3.72;;
20709;SDS011;10516;51.518;9.864;2022-08-16T13:40:38;3.60;;;3.30;;
20709;SDS011;10516;51.518;9.864;2022-08-16T13:43:04;5.10;;;3.00;;
20709;SDS011;10516;51.518;9.864;2022-08-16T13:45:30;5.68;;;3.53;;
20709;SDS011;10516;51.518;9.864;2022-08-16T13:47:57;3.65;;;3.25;;
20709;SDS011;10516;51.518;9.864;2022-08-16T13:50:22;3.53;;;3.22;;
20709;SDS011;10516;51.518;9.864;2022-08-16T13:52:49;3.50;;;3.20;;
20709;SDS011;10516;51.518;9.864;2022-08-16T13:55:14;4.20;;;3.40;;
20709;SDS011;10516;51.518;9.864;2022-08-16T13:57:40;5.10;;;4.03;;
20709;SDS011;10516;51.518;9.864;2022-08-16T14:00:06;3.95;;;3.65;;
20709;SDS011;10516;51.518;9.864;2022-08-16T14:02:33;7.57;;;3.53;;
20709;SDS011;10516;51.518;9.864;2022-08-16T14:04:59;4.03;;;3.70;;
20709;SDS011;10516;51.518;9.864;2022-08-16T14:07:24;4.20;;;3.30;;
20709;SDS011;10516;51.518;9.864;2022-08-16T14:09:50;5.53;;;3.65;;
20709;SDS011;10516;51.518;9.864;2022-08-16T14:12:17;3.53;;;3.22;;
20709;SDS011;10516;51.518;9.864;2022-08-16T14:14:43;3.85;;;3.50;;
20709;SDS011;10516;51.518;9.864;2022-08-16T14:17:08;3.42;;;3.13;;
20709;SDS011;10516;51.518;9.864;2022-08-16T14:19:34;7.05;;;4.00;;
20709;SDS011;10516;51.518;9.864;2022-08-16T14:21:59;4.38;;;3.80;;
20709;SDS011;10516;51.518;9.864;2022-08-16T14:24:25;7.05;;;4.28;;
20709;SDS011;10516;51.518;9.864;2022-08-16T14:26:51;4.38;;;3.97;;
20709;SDS011;10516;51.518;9.864;2022-08-16T14:29:17;11.00;;;6.22;;
20709;SDS011;10516;51.518;9.864;2022-08-16T14:31:42;5.90;;;4.13;;
20709;SDS011;10516;51.518;9.864;2022-08-16T14:34:08;6.25;;;4.75;;
20709;SDS011;10516;51.518;9.864;2022-08-16T14:36:35;5.22;;;4.10;;
20709;SDS011;10516;51.518;9.864;2022-08-16T14:39:00;5.03;;;3.80;;
20709;SDS011;10516;51.518;9.864;2022-08-16T14:41:27;4.45;;;4.05;;
20709;SDS011;10516;51.518;9.864;2022-08-16T14:43:53;4.50;;;4.03;;
20709;SDS011;10516;51.518;9.864;2022-08-16T14:46:19;5.75;;;4.28;;
20709;SDS011;10516;51.518;9.864;2022-08-16T14:48:44;4.97;;;3.90;;
20709;SDS011;10516;51.518;9.864;2022-08-16T14:51:10;5.22;;;4.15;;